Time;durP1;ratioP1;P1;durP2;ratioP2;P2;SDS_P1;SDS_P2;PMS_P1;PMS_P2;Temp;Humidity;BMP_temperature;BMP_pressure;BME280_temperature;BME280_humidity;BME280_pressure;Samples;Min_cycle;Max_cycle;Signal;HPM_P1;HPM_P2
2023/03/11 00:02:08;;;;;;;0.00;0.00;;;;;;;0.79;82.79;100887.31;4991068;28;96696;-29
2023/03/11 00:04:34;;;;;;;0.00;0.00;;;;;;;0.79;82.86;100903.28;4992549;28;96764;-29
2023/03/11 00:06:59;;;;;;;0.35;0.03;;;;;;;0.77;83.36;100899.78;4991916;28;97961;-29
2023/03/11 00:09:24;;;;;;;0.00;0.00;;;;;;;0.76;82.82;100892.69;4992317;28;97313;-29
2023/03/11 00:11:50;;;;;;;0.00;0.00;;;;;;;0.77;83.37;100905.09;4992471;28;96663;-29
2023/03/11 00:14:15;;;;;;;0.00;0.00;;;;;;;0.74;83.07;100906.94;4992516;28;96753;-29
2023/03/11 00:16:40;;;;;;;0.00;0.00;;;;;;;0.71;83.34;100915.88;4991742;28;97421;-30
2023/03/11 00:19:06;;;;;;;0.00;0.00;;;;;;;0.72;83.28;100920.31;4992254;28;97339;-31
2023/03/11 00:21:32;;;;;;;0.00;0.00;;;;;;;0.72;83.83;100922.13;4991762;28;96850;-29
2023/03/11 00:23:59;;;;;;;0.00;0.00;;;;;;;0.72;83.61;100931.00;4992365;28;96729;-29
2023/03/11 00:26:25;;;;;;;0.00;0.00;;;;;;;0.69;83.42;100933.72;4991511;28;99259;-31
2023/03/11 00:28:51;;;;;;;0.00;0.00;;;;;;;0.69;82.95;100938.16;4990447;28;100724;-30
2023/03/11 00:31:17;;;;;;;0.00;0.00;;;;;;;0.65;83.19;100939.13;4992289;28;96633;-30
2023/03/11 00:33:43;;;;;;;0.00;0.00;;;;;;;0.63;83.16;100937.38;4990991;28;96816;-29
2023/03/11 00:36:32;;;;;;;0.00;0.00;;;;;;;0.67;82.97;100947.97;4991447;28;99249;-30
2023/03/11 00:38:59;;;;;;;0.88;0.08;;;;;;;0.65;83.12;100953.34;4990518;28;101092;-30
2023/03/11 00:41:24;;;;;;;0.00;0.00;;;;;;;0.67;83.25;100955.94;4990054;28;97656;-30
2023/03/11 00:43:50;;;;;;;0.00;0.00;;;;;;;0.63;82.85;100955.16;4992352;28;96835;-30
2023/03/11 00:46:15;;;;;;;0.00;0.00;;;;;;;0.62;83.23;100956.03;4990238;28;99433;-29
2023/03/11 00:48:41;;;;;;;0.00;0.00;;;;;;;0.63;83.17;100963.16;4991638;28;97910;-29
2023/03/11 00:51:10;;;;;;;0.00;0.00;;;;;;;0.58;83.09;100957.03;4992137;28;96689;-29
2023/03/11 00:53:35;;;;;;;0.00;0.00;;;;;;;0.56;83.33;100953.50;4990320;28;96869;-29
2023/03/11 00:56:06;;;;;;;0.00;0.00;;;;;;;0.56;83.63;100965.03;4991857;28;97380;-32
2023/03/11 00:58:32;;;;;;;0.20;0.00;;;;;;;0.53;83.04;100964.22;4990710;28;101235;-29
2023/03/11 01:00:57;;;;;;;0.00;0.00;;;;;;;0.51;83.56;100966.03;4991429;28;96522;-30
2023/03/11 01:03:22;;;;;;;0.05;0.05;;;;;;;0.45;82.93;100963.47;4991952;28;96678;-29
2023/03/11 01:05:48;;;;;;;0.00;0.00;;;;;;;0.39;83.26;100968.00;4991151;28;97861;-30
2023/03/11 01:08:13;;;;;;;0.00;0.00;;;;;;;0.34;83.80;100975.22;4991807;28;97238;-29
2023/03/11 01:10:38;;;;;;;0.00;0.00;;;;;;;0.32;83.85;100966.38;4991323;28;96729;-29
2023/03/11 01:13:04;;;;;;;0.05;0.00;;;;;;;0.27;84.05;100970.03;4991737;28;96787;-33
2023/03/11 01:15:32;;;;;;;0.00;0.00;;;;;;;0.25;84.07;100963.84;4991461;28;98119;-30
2023/03/11 01:18:01;;;;;;;0.00;0.00;;;;;;;0.21;84.76;100965.66;4990838;28;100730;-29
2023/03/11 01:20:27;;;;;;;0.00;0.00;;;;;;;0.18;84.82;100973.72;4993627;28;96552;-30
2023/03/11 01:22:53;;;;;;;0.00;0.00;;;;;;;0.14;84.83;100972.91;4993462;28;96810;-29
2023/03/11 01:25:20;;;;;;;0.00;0.00;;;;;;;0.11;84.89;100978.25;4994714;28;97724;-29
2023/03/11 01:27:46;;;;;;;0.00;0.00;;;;;;;0.06;85.19;100973.91;4993304;28;101160;-31
2023/03/11 01:30:22;;;;;;;0.00;0.00;;;;;;;0.04;85.37;100979.25;4993997;28;96630;-30
2023/03/11 01:32:49;;;;;;;0.00;0.00;;;;;;;0.01;85.63;100976.66;4993453;28;96700;-30
2023/03/11 01:35:16;;;;;;;0.20;0.05;;;;;;;-0.04;85.74;100987.38;4994683;28;97435;-30
2023/03/11 01:37:42;;;;;;;0.00;0.00;;;;;;;-0.06;86.03;100981.19;4993066;28;98686;-29
2023/03/11 01:40:24;;;;;;;0.00;0.00;;;;;;;-0.07;86.44;100990.09;4993233;28;96559;-29
2023/03/11 01:42:50;;;;;;;0.00;0.00;;;;;;;-0.09;86.49;100985.72;4994444;28;96633;-29
2023/03/11 01:45:21;;;;;;;0.00;0.00;;;;;;;-0.07;86.30;100995.44;4994494;28;98376;-29
2023/03/11 01:47:46;;;;;;;0.20;0.20;;;;;;;-0.08;86.21;100996.31;4994537;28;99386;-29
2023/03/11 01:50:12;;;;;;;0.40;0.22;;;;;;;-0.15;86.57;100988.44;4994860;28;96590;-31
2023/03/11 01:52:39;;;;;;;0.00;0.00;;;;;;;-0.18;86.13;100992.03;4994290;28;96841;-29
2023/03/11 01:55:05;;;;;;;0.00;0.00;;;;;;;-0.19;86.03;100984.06;4992391;28;100779;-30
2023/03/11 01:57:31;;;;;;;0.00;0.00;;;;;;;-0.25;86.13;100987.72;4992735;28;101063;-30
2023/03/11 01:59:58;;;;;;;0.00;0.00;;;;;;;-0.27;86.34;100993.03;4994375;28;96502;-29
2023/03/11 02:02:30;;;;;;;0.00;0.00;;;;;;;-0.29;86.57;100988.66;4992911;28;96633;-30
2023/03/11 02:04:55;;;;;;;0.00;0.00;;;;;;;-0.29;86.34;100989.53;4976730;28;100994;-30
2023/03/11 02:07:21;;;;;;;0.00;0.00;;;;;;;-0.31;86.51;100982.47;4994173;28;97955;-31
2023/03/11 02:09:46;;;;;;;0.00;0.00;;;;;;;-0.30;86.55;100994.88;4993492;28;96543;-30
2023/03/11 02:12:14;;;;;;;0.00;0.00;;;;;;;-0.32;86.74;100994.03;4994555;28;96759;-30
2023/03/11 02:14:43;;;;;;;0.20;0.20;;;;;;;-0.33;86.47;100994.94;4992538;28;100952;-29
2023/03/11 02:17:09;;;;;;;0.00;0.00;;;;;;;-0.38;86.53;100999.41;4992323;28;101245;-31
2023/03/11 02:19:56;;;;;;;0.00;0.00;;;;;;;-0.37;86.92;101009.19;4993673;28;96646;-29
2023/03/11 02:22:22;;;;;;;0.10;0.10;;;;;;;-0.40;87.29;100999.47;4993820;28;96585;-29
2023/03/11 02:25:16;;;;;;;0.00;0.00;;;;;;;-0.40;87.17;101004.78;4992070;28;101515;-29
2023/03/11 02:27:46;;;;;;;0.00;0.00;;;;;;;-0.43;87.34;101005.72;4993225;28;97817;-29
2023/03/11 02:30:14;;;;;;;0.00;0.00;;;;;;;-0.43;87.19;101003.06;4992276;28;96521;-30
2023/03/11 02:32:42;;;;;;;0.00;0.00;;;;;;;-0.44;87.39;100992.41;4992234;28;96853;-29
2023/03/11 02:35:07;;;;;;;0.00;0.00;;;;;;;-0.44;87.32;100990.63;4992253;28;100565;-29
2023/03/11 02:37:33;;;;;;;0.00;0.00;;;;;;;-0.48;87.34;100986.28;4994122;28;98232;-29
2023/03/11 02:40:23;;;;;;;0.00;0.00;;;;;;;-0.45;87.45;100999.53;4993603;28;96531;-30
2023/03/11 02:43:00;;;;;;;0.00;0.00;;;;;;;-0.48;87.61;100991.59;4993833;28;96642;-30
2023/03/11 02:45:28;;;;;;;0.00;0.00;;;;;;;-0.48;87.86;100993.34;4992854;28;97372;-29
2023/03/11 02:47:55;;;;;;;0.00;0.00;;;;;;;-0.50;87.90;100997.81;4991910;28;100784;-30
2023/03/11 02:50:22;;;;;;;0.00;0.00;;;;;;;-0.51;87.43;100999.59;4992107;28;96588;-30
2023/03/11 02:52:49;;;;;;;0.00;0.00;;;;;;;-0.52;87.45;101000.50;4993371;28;96778;-29
2023/03/11 02:55:16;;;;;;;0.00;0.00;;;;;;;-0.55;87.81;100995.25;4991862;28;100980;-29
2023/03/11 02:57:43;;;;;;;0.00;0.00;;;;;;;-0.56;88.05;100993.47;4991742;28;100914;-29
2023/03/11 03:00:13;;;;;;;0.00;0.00;;;;;;;-0.55;87.95;101011.19;4991952;28;96662;-29
2023/03/11 03:02:39;;;;;;;0.00;0.00;;;;;;;-0.57;87.90;100998.78;4993739;28;96643;-30
2023/03/11 03:05:06;;;;;;;0.00;0.00;;;;;;;-0.57;88.31;101006.78;4992783;28;99406;-29
2023/03/11 03:07:31;;;;;;;0.00;0.00;;;;;;;-0.62;88.35;101008.63;4991572;28;102220;-29
2023/03/11 03:09:57;;;;;;;0.00;0.00;;;;;;;-0.63;88.25;101015.72;4992654;28;96572;-29
2023/03/11 03:12:22;;;;;;;0.00;0.00;;;;;;;-0.63;88.08;101013.06;4991684;28;96942;-29
2023/03/11 03:14:47;;;;;;;0.30;0.10;;;;;;;-0.66;88.21;101023.75;4993182;28;98033;-30
2023/03/11 03:17:13;;;;;;;0.00;0.00;;;;;;;-0.66;88.38;101029.06;4992864;28;99653;-29
2023/03/11 03:19:38;;;;;;;0.00;0.00;;;;;;;-0.66;88.44;101029.06;4993314;28;96606;-29
2023/03/11 03:22:03;;;;;;;0.00;0.00;;;;;;;-0.69;88.78;101029.09;4993010;28;96822;-29
2023/03/11 03:24:29;;;;;;;0.00;0.00;;;;;;;-0.68;88.87;101031.75;4992562;28;99285;-29
2023/03/11 03:26:54;;;;;;;0.00;0.00;;;;;;;-0.66;88.98;101045.03;4993030;28;97389;-30
2023/03/11 03:29:20;;;;;;;0.00;0.00;;;;;;;-0.66;88.96;101045.03;4992855;28;96645;-29
2023/03/11 03:31:45;;;;;;;0.00;0.00;;;;;;;-0.69;89.08;101043.28;4992968;28;96608;-29
2023/03/11 03:34:10;;;;;;;0.00;0.00;;;;;;;-0.67;89.02;101060.13;4992400;28;97959;-30
2023/03/11 03:36:36;;;;;;;0.00;0.00;;;;;;;-0.66;89.11;101053.88;4992859;28;97869;-29
2023/03/11 03:39:01;;;;;;;0.00;0.00;;;;;;;-0.71;88.76;101049.53;4992859;28;96470;-29
2023/03/11 03:41:27;;;;;;;0.00;0.00;;;;;;;-0.72;89.04;101058.38;4990491;28;96796;-30
2023/03/11 03:43:53;;;;;;;0.00;0.00;;;;;;;-0.71;89.21;101062.81;4992524;28;98591;-31
2023/03/11 03:46:19;;;;;;;0.00;0.00;;;;;;;-0.73;89.05;101060.19;4991041;28;101160;-29
2023/03/11 03:48:45;;;;;;;0.00;0.00;;;;;;;-0.75;89.12;101059.31;4992566;28;96696;-29
2023/03/11 03:51:12;;;;;;;0.00;0.00;;;;;;;-0.76;89.05;101069.94;4993077;28;96861;-30
2023/03/11 03:53:37;;;;;;;0.00;0.00;;;;;;;-0.78;89.13;101069.13;4991020;28;101090;-29
2023/03/11 03:56:05;;;;;;;0.38;0.20;;;;;;;-0.81;89.14;101067.38;4990917;28;101622;-30
2023/03/11 03:58:30;;;;;;;0.00;0.00;;;;;;;-0.81;89.33;101079.75;4991817;28;96548;-29
2023/03/11 04:00:57;;;;;;;0.08;0.08;;;;;;;-0.83;89.46;101070.91;4992694;28;96842;-29
2023/03/11 04:03:24;;;;;;;0.00;0.00;;;;;;;-0.82;89.56;101070.91;4990907;28;101068;-29
2023/03/11 04:05:49;;;;;;;0.00;0.00;;;;;;;-0.84;89.27;101071.84;4990805;28;100990;-29
2023/03/11 04:08:14;;;;;;;0.10;0.10;;;;;;;-0.84;89.55;101077.16;4992492;28;96655;-29
2023/03/11 04:10:40;;;;;;;0.00;0.00;;;;;;;-0.89;89.52;101059.47;4991705;28;96965;-31
2023/03/11 04:13:05;;;;;;;0.00;0.00;;;;;;;-0.91;89.54;101063.91;4992274;28;97934;-31
2023/03/11 04:15:30;;;;;;;0.00;0.00;;;;;;;-0.91;89.62;101060.38;4992561;28;97340;-28
2023/03/11 04:17:56;;;;;;;0.00;0.00;;;;;;;-0.92;89.68;101064.81;4992461;28;96658;-29
2023/03/11 04:20:21;;;;;;;0.20;0.10;;;;;;;-0.93;89.43;101057.75;4992322;28;96620;-29
2023/03/11 04:22:46;;;;;;;0.00;0.00;;;;;;;-0.96;89.56;101063.09;4991379;28;97383;-30
2023/03/11 04:25:12;;;;;;;0.00;0.00;;;;;;;-0.96;89.64;101064.88;4991369;28;97271;-30
2023/03/11 04:27:37;;;;;;;0.00;0.00;;;;;;;-0.96;89.74;101062.22;4992337;28;96403;-30
2023/03/11 04:30:04;;;;;;;0.22;0.10;;;;;;;-0.96;89.27;101067.53;4992248;28;96749;-29
2023/03/11 04:32:29;;;;;;;0.00;0.00;;;;;;;-1.01;89.41;101070.22;4991826;28;99799;-29
2023/03/11 04:34:54;;;;;;;0.00;0.00;;;;;;;-0.99;89.40;101078.19;4992089;28;98307;-29
2023/03/11 04:37:20;;;;;;;0.00;0.00;;;;;;;-1.00;89.66;101076.41;4991876;28;96634;-29
2023/03/11 04:39:45;;;;;;;0.00;0.00;;;;;;;-1.02;89.41;101078.25;4992443;28;96735;-31
2023/03/11 04:42:12;;;;;;;0.00;0.00;;;;;;;-1.02;89.48;101083.56;4991878;28;97478;-29
2023/03/11 04:44:38;;;;;;;0.00;0.00;;;;;;;-1.04;89.76;101088.88;4990435;28;99187;-29
2023/03/11 04:47:04;;;;;;;0.00;0.00;;;;;;;-1.03;89.45;101084.44;4989839;28;96512;-29
2023/03/11 04:49:29;;;;;;;0.00;0.00;;;;;;;-1.09;89.47;101083.59;4991871;28;96740;-29
2023/03/11 04:51:54;;;;;;;0.00;0.00;;;;;;;-1.08;89.74;101089.78;4991872;28;97945;-30
2023/03/11 04:54:20;;;;;;;0.25;0.20;;;;;;;-1.08;89.84;101089.78;4994432;28;97275;-29
2023/03/11 04:56:45;;;;;;;0.00;0.00;;;;;;;-1.11;89.86;101087.19;4995164;28;96505;-29
2023/03/11 04:59:10;;;;;;;0.00;0.00;;;;;;;-1.12;89.76;101088.06;4995350;28;96784;-29
2023/03/11 05:01:35;;;;;;;0.00;0.00;;;;;;;-1.12;89.89;101098.69;4995291;28;97866;-29
2023/03/11 05:04:01;;;;;;;0.00;0.00;;;;;;;-1.14;89.73;101096.06;4995446;28;98500;-29
2023/03/11 05:06:26;;;;;;;0.08;0.03;;;;;;;-1.14;89.65;101098.72;4994949;28;96483;-29
2023/03/11 05:08:52;;;;;;;0.38;0.15;;;;;;;-1.16;89.61;101103.16;4994828;28;97209;-29
2023/03/11 05:11:17;;;;;;;0.20;0.10;;;;;;;-1.17;89.67;101108.47;4994094;28;97869;-30
2023/03/11 05:13:42;;;;;;;0.00;0.00;;;;;;;-1.24;89.69;101101.47;4994962;28;97173;-29
2023/03/11 05:16:08;;;;;;;0.00;0.00;;;;;;;-1.23;89.66;101100.59;4995072;28;96475;-31
2023/03/11 05:18:33;;;;;;;0.00;0.00;;;;;;;-1.24;89.93;101110.34;4993858;28;96800;-31
2023/03/11 05:20:59;;;;;;;0.00;0.00;;;;;;;-1.25;89.90;101103.25;4994968;28;97850;-29
2023/03/11 05:23:24;;;;;;;0.08;0.08;;;;;;;-1.26;89.70;101104.16;4994521;28;97876;-30
2023/03/11 05:25:49;;;;;;;0.00;0.00;;;;;;;-1.26;89.85;101113.88;4994591;28;96789;-29
2023/03/11 05:28:15;;;;;;;0.00;0.00;;;;;;;-1.27;89.70;101117.44;4995442;28;96741;-29
2023/03/11 05:30:40;;;;;;;0.00;0.00;;;;;;;-1.30;89.89;101116.56;4994560;28;99473;-29
2023/03/11 05:33:05;;;;;;;0.10;0.10;;;;;;;-1.33;90.05;101119.25;4994741;28;97333;-30
2023/03/11 05:35:31;;;;;;;0.00;0.00;;;;;;;-1.34;90.10;101127.22;4994224;28;96608;-29
2023/03/11 05:37:56;;;;;;;0.00;0.00;;;;;;;-1.33;89.93;101121.91;4994944;28;96764;-30
2023/03/11 05:40:21;;;;;;;0.00;0.00;;;;;;;-1.35;89.82;101128.16;4994516;28;97375;-29
2023/03/11 05:42:47;;;;;;;0.00;0.00;;;;;;;-1.38;90.06;101128.16;4994616;28;97449;-29
2023/03/11 05:45:13;;;;;;;0.00;0.00;;;;;;;-1.38;90.20;101125.50;4994575;28;96613;-29
2023/03/11 05:47:41;;;;;;;0.00;0.00;;;;;;;-1.40;89.85;101130.84;4994667;28;96815;-29
2023/03/11 05:50:07;;;;;;;0.00;0.00;;;;;;;-1.47;89.63;101118.50;4993008;28;101472;-30
2023/03/11 05:52:32;;;;;;;0.00;0.00;;;;;;;-1.42;89.71;101143.25;4993061;28;101659;-29
2023/03/11 05:54:58;;;;;;;0.00;0.00;;;;;;;-1.44;89.86;101137.06;4994388;28;96657;-30
2023/03/11 05:57:24;;;;;;;0.00;0.00;;;;;;;-1.43;90.11;101141.50;4994429;28;96796;-29
2023/03/11 05:59:49;;;;;;;0.13;0.10;;;;;;;-1.45;90.01;101143.28;4993951;28;98114;-29
2023/03/11 06:02:14;;;;;;;0.00;0.00;;;;;;;-1.44;90.16;101133.53;4994019;28;99135;-29
2023/03/11 06:04:40;;;;;;;0.00;0.00;;;;;;;-1.45;90.18;101142.38;4993735;28;96570;-29
2023/03/11 06:07:05;;;;;;;0.03;0.03;;;;;;;-1.46;90.17;101146.81;4994122;28;96800;-29
2023/03/11 06:09:31;;;;;;;0.03;0.03;;;;;;;-1.49;89.88;101146.84;4993621;28;97432;-29
2023/03/11 06:11:56;;;;;;;4.50;0.20;;;;;;;-1.48;90.19;101151.25;4993915;28;99407;-29
2023/03/11 06:14:21;;;;;;;0.00;0.00;;;;;;;-1.51;90.13;101141.53;4994111;28;96796;-29
2023/03/11 06:16:47;;;;;;;0.00;0.00;;;;;;;-1.48;90.22;101142.41;4994570;28;96722;-28
2023/03/11 06:19:12;;;;;;;0.00;0.00;;;;;;;-1.47;90.08;101160.13;4993913;28;97660;-29
2023/03/11 06:21:37;;;;;;;0.00;0.00;;;;;;;-1.49;90.28;101170.75;4993943;28;97400;-30
2023/03/11 06:24:03;;;;;;;0.00;0.00;;;;;;;-1.52;89.95;101160.16;4993486;28;96739;-30
2023/03/11 06:26:29;;;;;;;0.10;0.10;;;;;;;-1.50;90.18;101166.34;4993498;28;96799;-29
2023/03/11 06:28:54;;;;;;;0.00;0.00;;;;;;;-1.51;90.18;101170.75;4993618;28;99226;-29
2023/03/11 06:31:26;;;;;;;0.00;0.00;;;;;;;-1.52;90.08;101173.44;4993900;28;97862;-29
2023/03/11 06:33:52;;;;;;;0.40;0.20;;;;;;;-1.55;90.13;101171.69;4992458;28;96613;-29
2023/03/11 06:36:18;;;;;;;0.00;0.00;;;;;;;-1.50;90.11;101180.50;4992338;28;96778;-29
2023/03/11 06:38:45;;;;;;;0.00;0.00;;;;;;;-1.49;90.07;101181.38;4992111;28;100726;-29
2023/03/11 06:41:11;;;;;;;0.00;0.00;;;;;;;-1.47;90.24;101182.25;4992479;28;100855;-29
2023/03/11 06:43:37;;;;;;;0.00;0.00;;;;;;;-1.46;90.19;101181.34;4992159;28;96934;-30
2023/03/11 06:46:11;;;;;;;0.03;0.03;;;;;;;-1.46;90.13;101177.81;4993677;28;96749;-30
2023/03/11 06:48:36;;;;;;;0.00;0.00;;;;;;;-1.41;90.19;101192.81;4975085;28;100823;-29
2023/03/11 06:51:02;;;;;;;0.00;0.00;;;;;;;-1.42;90.09;101196.38;4993055;28;99210;-29
2023/03/11 06:53:28;;;;;;;0.00;0.00;;;;;;;-1.41;90.32;101184.84;4993409;28;96474;-30
2023/03/11 06:56:23;;;;;;;0.00;0.00;;;;;;;-1.34;90.25;101198.97;4992070;28;96779;-29
2023/03/11 06:58:49;;;;;;;0.00;0.00;;;;;;;-1.29;90.20;101198.06;4992242;28;99029;-29
2023/03/11 07:01:17;;;;;;;0.17;0.00;;;;;;;-1.24;90.30;101194.47;4991928;28;100986;-29
2023/03/11 07:03:44;;;;;;;0.00;0.00;;;;;;;-1.16;90.11;101205.94;4991778;28;96609;-29
2023/03/11 07:06:15;;;;;;;0.00;0.00;;;;;;;-1.11;90.19;101197.03;4992153;28;96660;-29
2023/03/11 07:08:41;;;;;;;0.00;0.00;;;;;;;-0.95;90.17;101202.22;4993129;28;98061;-29
2023/03/11 07:11:11;;;;;;;0.00;0.00;;;;;;;-0.86;89.46;101208.34;4992274;28;99717;-29
2023/03/11 07:13:37;;;;;;;0.00;0.00;;;;;;;-0.74;89.84;101211.78;4992967;28;96578;-29
2023/03/11 07:16:06;;;;;;;0.00;0.00;;;;;;;-0.67;89.75;101218.81;4990394;28;96823;-29
2023/03/11 07:18:32;;;;;;;0.00;0.00;;;;;;;-0.51;89.33;101220.41;4992869;28;100766;-30
2023/03/11 07:20:58;;;;;;;0.10;0.10;;;;;;;-0.37;88.83;101224.72;4991576;28;100967;-30
2023/03/11 07:23:23;;;;;;;0.10;0.10;;;;;;;-0.23;88.58;101221.00;4992811;28;96898;-30
2023/03/11 07:25:50;;;;;;;0.03;0.03;;;;;;;-0.08;88.30;101225.28;4993052;28;96793;-29
2023/03/11 07:28:16;;;;;;;0.50;0.17;;;;;;;0.05;88.07;101225.13;4992803;28;99306;-29
2023/03/11 07:30:43;;;;;;;0.00;0.00;;;;;;;0.23;87.61;101224.03;4993172;28;97926;-31
2023/03/11 07:33:08;;;;;;;0.00;0.00;;;;;;;0.45;87.32;101220.16;4992717;28;96548;-30
2023/03/11 07:35:34;;;;;;;0.00;0.00;;;;;;;0.65;87.29;101227.88;4993020;28;96758;-30
2023/03/11 07:38:00;;;;;;;0.17;0.17;;;;;;;0.83;86.42;101226.72;4992227;28;97447;-29
2023/03/11 07:40:25;;;;;;;0.00;0.00;;;;;;;1.12;85.71;101233.38;4992765;28;97928;-29
2023/03/11 07:42:51;;;;;;;0.00;0.00;;;;;;;1.36;85.26;101232.97;4992859;28;96585;-30
2023/03/11 07:45:16;;;;;;;0.17;0.13;;;;;;;1.68;84.37;101234.19;4992714;28;96715;-30
2023/03/11 07:47:41;;;;;;;0.00;0.00;;;;;;;1.89;83.80;101225.75;4992751;28;97935;-30
2023/03/11 07:50:07;;;;;;;0.13;0.13;;;;;;;2.18;82.94;101242.13;4992619;28;97898;-30
2023/03/11 07:52:32;;;;;;;0.00;0.00;;;;;;;2.40;82.52;101238.06;4992405;28;96638;-29
2023/03/11 07:54:58;;;;;;;1.17;0.52;;;;;;;2.64;81.62;101246.47;4992935;28;96832;-29
2023/03/11 07:57:23;;;;;;;0.00;0.00;;;;;;;2.89;80.50;101249.47;4992322;28;99295;-30
2023/03/11 07:59:49;;;;;;;0.10;0.10;;;;;;;3.00;79.77;101246.53;4990977;28;97603;-30
2023/03/11 08:02:14;;;;;;;0.00;0.00;;;;;;;3.01;77.91;101243.81;4992052;28;96447;-30
2023/03/11 08:04:40;;;;;;;0.22;0.13;;;;;;;3.14;78.76;101255.97;4992642;28;96803;-29
2023/03/11 08:07:05;;;;;;;0.10;0.10;;;;;;;3.24;78.08;101256.63;4992191;28;98040;-30
2023/03/11 08:09:30;;;;;;;0.00;0.00;;;;;;;3.31;79.07;101260.03;4991899;28;97801;-29
2023/03/11 08:11:56;;;;;;;0.10;0.10;;;;;;;3.32;79.34;101251.97;4991039;28;96940;-29
2023/03/11 08:14:21;;;;;;;0.00;0.00;;;;;;;3.39;77.96;101264.28;4990620;28;96788;-30
2023/03/11 08:16:47;;;;;;;0.05;0.05;;;;;;;3.46;77.11;101258.78;4992254;28;97908;-29
2023/03/11 08:19:12;;;;;;;0.10;0.10;;;;;;;3.62;77.11;101260.13;4992655;28;97785;-29
2023/03/11 08:21:38;;;;;;;0.13;0.08;;;;;;;3.79;76.18;101260.59;4991792;28;97070;-29
2023/03/11 08:24:05;;;;;;;0.10;0.00;;;;;;;3.95;74.67;101281.59;4992416;28;96711;-29
2023/03/11 08:26:30;;;;;;;0.00;0.00;;;;;;;4.07;73.80;101275.88;4989842;28;101090;-30
2023/03/11 08:28:57;;;;;;;0.00;0.00;;;;;;;4.21;74.17;101268.34;4991910;28;97587;-30
2023/03/11 08:31:25;;;;;;;0.00;0.00;;;;;;;4.30;71.74;101272.56;4990703;28;96520;-30
2023/03/11 08:33:55;;;;;;;0.10;0.10;;;;;;;4.40;70.20;101268.69;4990736;28;96747;-30
2023/03/11 08:36:20;;;;;;;0.00;0.00;;;;;;;4.56;72.79;101274.50;4991715;28;98368;-30
2023/03/11 08:38:46;;;;;;;0.00;0.00;;;;;;;4.72;70.09;101271.34;4992025;28;97757;-29
2023/03/11 08:41:12;;;;;;;0.00;0.00;;;;;;;4.81;68.29;101274.59;4990670;28;96693;-29
2023/03/11 08:43:38;;;;;;;0.00;0.00;;;;;;;4.96;69.05;101272.38;4990535;28;96995;-29
2023/03/11 08:46:08;;;;;;;0.10;0.05;;;;;;;5.14;69.51;101284.34;4991645;28;98829;-29
2023/03/11 08:48:35;;;;;;;0.35;0.30;;;;;;;5.25;68.22;101283.06;4990361;28;99476;-30
2023/03/11 08:51:01;;;;;;;0.00;0.00;;;;;;;5.29;68.58;101282.06;4990036;28;97348;-30
2023/03/11 08:53:27;;;;;;;0.00;0.00;;;;;;;5.21;65.63;101285.91;4991822;28;96704;-29
2023/03/11 08:55:53;;;;;;;0.00;0.00;;;;;;;5.32;67.63;101290.00;4990284;28;101004;-29
2023/03/11 08:58:19;;;;;;;0.00;0.00;;;;;;;5.47;66.33;101287.75;4991639;28;97588;-29
2023/03/11 09:00:45;;;;;;;0.00;0.00;;;;;;;5.48;66.86;101298.44;4990230;28;96642;-31
2023/03/11 09:03:12;;;;;;;0.10;0.05;;;;;;;5.41;65.35;101290.63;4990277;28;96794;-29
2023/03/11 09:05:37;;;;;;;0.00;0.00;;;;;;;5.33;66.84;101293.56;4990103;28;101367;-30
2023/03/11 09:08:03;;;;;;;0.30;0.08;;;;;;;5.35;65.77;101291.72;4992064;28;98309;-30
2023/03/11 09:10:28;;;;;;;0.00;0.00;;;;;;;5.31;66.34;101296.31;4991297;28;96784;-31
2023/03/11 09:12:54;;;;;;;0.20;0.20;;;;;;;5.23;68.09;101302.84;4991717;28;96688;-30
2023/03/11 09:15:19;;;;;;;0.10;0.10;;;;;;;5.16;66.62;101301.28;4991115;28;97512;-30
2023/03/11 09:17:44;;;;;;;0.25;0.03;;;;;;;5.03;67.75;101290.03;4991265;28;99403;-29
2023/03/11 09:20:12;;;;;;;0.20;0.00;;;;;;;4.95;68.86;101303.72;4991711;28;96583;-31
2023/03/11 09:22:37;;;;;;;0.10;0.05;;;;;;;4.78;64.91;101293.50;4990053;28;96852;-30
2023/03/11 09:25:03;;;;;;;0.20;0.08;;;;;;;4.74;67.91;101305.25;4991028;28;97881;-29
2023/03/11 09:27:28;;;;;;;0.00;0.00;;;;;;;4.60;64.94;101291.34;4991262;28;98421;-30
2023/03/11 09:29:53;;;;;;;0.15;0.03;;;;;;;4.72;69.91;101293.69;4991322;28;96669;-31
2023/03/11 09:32:20;;;;;;;0.00;0.00;;;;;;;4.74;69.22;101305.25;4992131;28;96723;-30
2023/03/11 09:34:45;;;;;;;0.00;0.00;;;;;;;4.77;68.07;101304.28;4991227;28;97601;-30
2023/03/11 09:37:10;;;;;;;0.10;0.00;;;;;;;4.84;65.21;101300.50;4991008;28;99044;-30
2023/03/11 09:39:36;;;;;;;0.10;0.10;;;;;;;4.95;66.96;101292.09;4992434;28;96572;-30
2023/03/11 09:42:16;;;;;;;0.30;0.15;;;;;;;5.00;66.47;101300.88;4994559;28;96910;-30
2023/03/11 09:44:57;;;;;;;0.00;0.00;;;;;;;5.02;66.95;101302.59;4993150;28;101034;-29
2023/03/11 09:47:50;;;;;;;0.00;0.00;;;;;;;5.18;67.42;101296.75;4993001;28;101315;-29
2023/03/11 09:50:36;;;;;;;0.13;0.08;;;;;;;5.20;64.87;101294.91;4993092;28;96797;-30
2023/03/11 09:53:25;;;;;;;0.30;0.10;;;;;;;5.18;65.79;101303.00;4993155;28;96711;-29
2023/03/11 09:55:57;;;;;;;2.75;0.15;;;;;;;5.09;63.47;101308.66;4992865;28;100838;-29
2023/03/11 09:58:41;;;;;;;;;;;;;;;5.23;64.89;101318.97;4993548;28;100857;-30
2023/03/11 10:01:27;;;;;;;0.00;0.00;;;;;;;5.16;61.62;101309.34;4994377;28;96641;-29
2023/03/11 10:04:22;;;;;;;0.10;0.10;;;;;;;5.14;64.71;101319.25;4994170;28;96887;-30
2023/03/11 10:06:47;;;;;;;0.00;0.00;;;;;;;5.14;66.31;101309.38;4992433;28;99111;-30
2023/03/11 10:09:37;;;;;;;0.00;0.00;;;;;;;5.10;64.72;101321.13;4994259;28;97775;-31
2023/03/11 10:12:12;;;;;;;0.00;0.00;;;;;;;5.08;66.87;101314.97;4994213;28;96434;-29
2023/03/11 10:15:02;;;;;;;0.00;0.00;;;;;;;5.11;65.59;101315.72;4994358;28;96447;-31
2023/03/11 10:17:57;;;;;;;0.68;0.15;;;;;;;5.07;66.87;101318.56;4993702;28;99280;-29
2023/03/11 10:20:37;;;;;;;1.67;0.00;;;;;;;5.05;64.01;101315.03;4991301;28;99192;-30
2023/03/11 10:23:25;;;;;;;0.00;0.00;;;;;;;4.99;62.85;101312.56;4994131;28;96609;-30
2023/03/11 10:26:19;;;;;;;0.00;0.00;;;;;;;4.93;62.91;101316.28;4993575;28;96771;-29
2023/03/11 10:28:54;;;;;;;0.10;0.00;;;;;;;5.01;64.80;101303.53;4994006;28;97959;-29
2023/03/11 10:31:33;;;;;;;0.00;0.00;;;;;;;5.06;64.03;101308.75;4993954;28;97523;-28
2023/03/11 10:34:16;;;;;;;0.00;0.00;;;;;;;5.18;62.27;101318.25;4991776;28;97307;-31
2023/03/11 10:37:02;;;;;;;0.00;0.00;;;;;;;5.18;62.48;101307.50;4992548;28;96892;-30
2023/03/11 10:39:29;;;;;;;0.00;0.00;;;;;;;5.21;64.10;101315.44;4993623;28;99720;-31
2023/03/11 10:41:59;;;;;;;0.03;0.00;;;;;;;5.16;62.16;101322.78;4992231;28;100883;-29
2023/03/11 10:44:33;;;;;;;0.10;0.10;;;;;;;5.09;63.56;101322.94;4992142;28;96723;-30
2023/03/11 10:46:58;;;;;;;0.00;0.00;;;;;;;5.03;64.02;101317.78;4992314;28;96667;-30
2023/03/11 10:49:24;;;;;;;0.40;0.20;;;;;;;5.05;65.11;101320.41;4993323;28;97838;-30
2023/03/11 10:51:51;;;;;;;0.13;0.10;;;;;;;4.96;62.12;101315.31;4992299;28;97902;-29
2023/03/11 10:54:22;;;;;;;0.10;0.08;;;;;;;4.98;62.95;101324.22;4992218;28;96562;-32
2023/03/11 10:56:54;;;;;;;0.35;0.13;;;;;;;5.18;63.82;101328.97;4992106;28;96865;-31
2023/03/11 10:59:32;;;;;;;0.00;0.00;;;;;;;5.23;63.04;101325.22;4991594;28;101190;-30
2023/03/11 11:02:18;;;;;;;0.52;0.10;;;;;;;5.53;60.76;101330.53;4993314;28;98475;-29
2023/03/11 11:04:44;;;;;;;0.00;0.00;;;;;;;5.57;63.16;101331.31;4993638;28;96529;-29
2023/03/11 11:07:27;;;;;;;0.00;0.00;;;;;;;5.59;57.52;101332.13;4991828;28;96918;-30
2023/03/11 11:10:10;;;;;;;0.00;0.00;;;;;;;5.65;59.38;101331.91;4990875;28;101491;-29
2023/03/11 11:13:00;;;;;;;0.70;0.10;;;;;;;5.75;58.55;101336.06;4993046;28;99112;-30
2023/03/11 11:15:57;;;;;;;0.08;0.00;;;;;;;5.98;61.14;101339.81;4991308;28;96644;-34
2023/03/11 11:18:27;;;;;;;0.00;0.00;;;;;;;5.99;60.08;101333.50;4990519;28;96890;-31
2023/03/11 11:21:00;;;;;;;0.10;0.10;;;;;;;6.25;60.53;101348.72;4990787;28;97388;-31
2023/03/11 11:23:46;;;;;;;0.10;0.10;;;;;;;6.61;60.58;101343.81;4988721;28;100922;-32
2023/03/11 11:26:22;;;;;;;0.00;0.00;;;;;;;7.01;57.12;101339.63;4987902;28;97045;-34
2023/03/11 11:29:06;;;;;;;0.00;0.00;;;;;;;7.05;57.39;101334.97;4989018;28;96695;-34
2023/03/11 11:31:31;;;;;;;0.00;0.00;;;;;;;7.47;59.22;101335.09;4990366;28;99376;-32
2023/03/11 11:33:57;;;;;;;0.00;0.00;;;;;;;7.94;59.35;101331.34;4990830;28;98886;-29
2023/03/11 11:36:29;;;;;;;0.47;0.30;;;;;;;8.14;58.40;101323.25;4992890;28;96607;-29